Time;durP1;ratioP1;P1;durP2;ratioP2;P2;SDS_P1;SDS_P2;PMS_P1;PMS_P2;Temp;Humidity;BMP_temperature;BMP_pressure;BME280_temperature;BME280_humidity;BME280_pressure;Samples;Min_cycle;Max_cycle;Signal;HPM_P1;HPM_P2
2023/01/17 00:02:01;;;;;;;;;;;;;;;;;;5089843;28;20368;-89
2023/01/17 00:10:09;;;;;;;;;;;;;;;;;;5082711;28;20419;-89
2023/01/17 00:12:37;;;;;;;;;;;;;;;;;;5081856;28;19935;-87
2023/01/17 00:15:04;;;;;;;;;;;;;;;;;;5089435;28;19931;-89
2023/01/17 00:17:32;;;;;;;;;;;;;;;;;;5090167;28;20311;-89
2023/01/17 01:35:54;;;;;;;;;;;;;;;;;;5092373;28;19924;-88
2023/01/17 01:38:27;;;;;;;;;;;;;;;;;;5088514;28;19924;-87
2023/01/17 01:40:54;;;;;;;;;;;;;;;;;;5080210;28;19939;-90
2023/01/17 01:43:27;;;;;;;;;;;;;;;;;;5089959;28;19924;-90
2023/01/17 01:45:59;;;;;;;;;;;;;;;;;;5087677;28;19925;-89
2023/01/17 01:48:32;;;;;;;;;;;;;;;;;;5071986;28;19932;-89
2023/01/17 01:50:59;;;;;;;;;;;;;;;;;;5079342;28;19924;-89
2023/01/17 01:53:32;;;;;;;;;;;;;;;;;;5089354;28;19925;-88
2023/01/17 01:55:59;;;;;;;;;;;;;;;;;;5080063;28;19931;-88
2023/01/17 01:58:27;;;;;;;;;;;;;;;;;;5087627;28;20304;-88
2023/01/17 02:00:54;;;;;;;;;;;;;;;;;;5083904;28;19931;-89
2023/01/17 02:03:22;;;;;;;;;;;;;;;;;;5091730;28;20384;-89
2023/01/17 02:05:55;;;;;;;;;;;;;;;;;;5090117;28;19924;-89
2023/01/17 02:08:22;;;;;;;;;;;;;;;;;;5090642;28;19924;-89
2023/01/17 02:10:50;;;;;;;;;;;;;;;;;;5081647;28;19931;-89
2023/01/17 02:13:17;;;;;;;;;;;;;;;;;;5084286;28;19924;-89
2023/01/17 02:15:50;;;;;;;;;;;;;;;;;;5086129;28;19931;-89
2023/01/17 02:18:22;;;;;;;;;;;;;;;;;;5095961;28;19924;-89
2023/01/17 02:20:55;;;;;;;;;;;;;;;;;;5084192;28;19925;-89
2023/01/17 02:23:28;;;;;;;;;;;;;;;;;;5076840;28;19925;-89
2023/01/17 02:25:56;;;;;;;;;;;;;;;;;;5083157;28;19924;-89
2023/01/17 02:28:23;;;;;;;;;;;;;;;;;;5084804;28;19924;-88
2023/01/17 02:30:50;;;;;;;;;;;;;;;;;;5096249;28;20363;-89
2023/01/17 02:33:23;;;;;;;;;;;;;;;;;;5086958;28;20296;-88
2023/01/17 02:35:55;;;;;;;;;;;;;;;;;;5075300;28;19925;-89
2023/01/17 02:38:23;;;;;;;;;;;;;;;;;;5083706;28;19924;-88
2023/01/17 02:40:50;;;;;;;;;;;;;;;;;;5082051;28;19928;-89
2023/01/17 02:43:23;;;;;;;;;;;;;;;;;;5078632;28;19924;-89
2023/01/17 02:45:55;;;;;;;;;;;;;;;;;;5095766;28;19924;-89
2023/01/17 02:48:23;;;;;;;;;;;;;;;;;;5081035;28;19925;-90
2023/01/17 02:50:50;;;;;;;;;;;;;;;;;;5094744;28;19934;-89
2023/01/17 02:53:18;;;;;;;;;;;;;;;;;;5093292;28;19931;-90
2023/01/17 02:55:48;;;;;;;;;;;;;;;;;;5090656;28;19931;-90
2023/01/17 02:58:15;;;;;;;;;;;;;;;;;;5085034;28;19924;-89
2023/01/17 03:00:48;;;;;;;;;;;;;;;;;;5096083;28;20399;-89
2023/01/17 03:03:21;;;;;;;;;;;;;;;;;;5091724;28;19935;-89
2023/01/17 03:05:53;;;;;;;;;;;;;;;;;;5083487;28;19924;-89
2023/01/17 03:08:21;;;;;;;;;;;;;;;;;;5089160;28;19928;-89
2023/01/17 03:10:53;;;;;;;;;;;;;;;;;;5094726;28;19924;-90
2023/01/17 03:13:21;;;;;;;;;;;;;;;;;;5095207;28;20437;-89
2023/01/17 03:15:48;;;;;;;;;;;;;;;;;;5092353;28;19931;-89
2023/01/17 03:18:16;;;;;;;;;;;;;;;;;;5081479;28;19925;-89
2023/01/17 03:20:43;;;;;;;;;;;;;;;;;;5092969;28;19924;-89
2023/01/17 03:23:16;;;;;;;;;;;;;;;;;;5092528;28;19931;-89
2023/01/17 03:25:43;;;;;;;;;;;;;;;;;;5088169;28;20376;-88
2023/01/17 03:28:16;;;;;;;;;;;;;;;;;;5095861;28;19924;-88
2023/01/17 03:30:43;;;;;;;;;;;;;;;;;;5084716;28;19924;-89
2023/01/17 03:33:16;;;;;;;;;;;;;;;;;;5084761;28;19924;-89
2023/01/17 03:35:48;;;;;;;;;;;;;;;;;;5089910;28;19931;-89
2023/01/17 03:38:16;;;;;;;;;;;;;;;;;;5082843;28;20299;-89
2023/01/17 03:40:43;;;;;;;;;;;;;;;;;;5080658;28;19924;-89
2023/01/17 03:43:11;;;;;;;;;;;;;;;;;;5091243;28;19928;-88
2023/01/17 03:45:39;;;;;;;;;;;;;;;;;;5084936;28;19931;-89
2023/01/17 03:48:06;;;;;;;;;;;;;;;;;;5085258;28;20400;-88
2023/01/17 03:50:34;;;;;;;;;;;;;;;;;;5085563;28;20293;-89
2023/01/17 03:53:01;;;;;;;;;;;;;;;;;;5075819;28;19943;-89
2023/01/17 03:55:29;;;;;;;;;;;;;;;;;;5093304;28;19924;-89
2023/01/17 03:57:56;;;;;;;;;;;;;;;;;;5088352;28;19924;-89
2023/01/17 04:00:29;;;;;;;;;;;;;;;;;;5092283;28;19924;-89
2023/01/17 04:02:56;;;;;;;;;;;;;;;;;;5086183;28;19925;-89
2023/01/17 04:05:24;;;;;;;;;;;;;;;;;;5092001;28;20406;-87
2023/01/17 04:07:51;;;;;;;;;;;;;;;;;;5077077;28;19928;-89
2023/01/17 04:10:24;;;;;;;;;;;;;;;;;;5087621;28;19931;-88
2023/01/17 04:12:51;;;;;;;;;;;;;;;;;;5076139;28;19935;-88
2023/01/17 04:15:19;;;;;;;;;;;;;;;;;;5087214;28;19928;-89
2023/01/17 04:17:51;;;;;;;;;;;;;;;;;;5078506;28;19928;-88
2023/01/17 04:20:19;;;;;;;;;;;;;;;;;;5081235;28;20465;-89
2023/01/17 04:22:46;;;;;;;;;;;;;;;;;;5088334;28;19925;-89
2023/01/17 04:25:14;;;;;;;;;;;;;;;;;;5086972;28;19928;-88
2023/01/17 04:27:42;;;;;;;;;;;;;;;;;;5095507;28;19928;-88
2023/01/17 04:30:09;;;;;;;;;;;;;;;;;;5073229;28;20415;-89
2023/01/17 04:32:36;;;;;;;;;;;;;;;;;;5074835;28;20288;-88
2023/01/17 04:35:05;;;;;;;;;;;;;;;;;;5093131;28;19924;-88
2023/01/17 04:37:38;;;;;;;;;;;;;;;;;;5092552;28;19928;-88
2023/01/17 04:40:10;;;;;;;;;;;;;;;;;;5089829;28;19924;-89
2023/01/17 04:42:38;;;;;;;;;;;;;;;;;;5084467;28;20314;-88
2023/01/17 04:45:10;;;;;;;;;;;;;;;;;;5090669;28;19924;-89
2023/01/17 04:47:43;;;;;;;;;;;;;;;;;;5073664;28;19931;-89
2023/01/17 04:50:11;;;;;;;;;;;;;;;;;;5083738;28;20303;-87
2023/01/17 04:52:38;;;;;;;;;;;;;;;;;;5081764;28;19931;-88
2023/01/17 04:55:06;;;;;;;;;;;;;;;;;;5090092;28;19947;-88
2023/01/17 04:57:38;;;;;;;;;;;;;;;;;;5083450;28;20296;-88
2023/01/17 05:00:10;;;;;;;;;;;;;;;;;;5103406;28;19931;-88
2023/01/17 05:02:43;;;;;;;;;;;;;;;;;;5072827;28;19924;-88
2023/01/17 05:05:12;;;;;;;;;;;;;;;;;;5088782;28;19924;-89
2023/01/17 05:07:39;;;;;;;;;;;;;;;;;;5078822;28;19924;-88
2023/01/17 05:10:07;;;;;;;;;;;;;;;;;;5083996;28;19932;-89
2023/01/17 05:12:39;;;;;;;;;;;;;;;;;;5078458;28;20277;-89
2023/01/17 05:15:07;;;;;;;;;;;;;;;;;;5082945;28;19925;-89
2023/01/17 05:17:34;;;;;;;;;;;;;;;;;;5093669;28;19928;-89
2023/01/17 05:20:02;;;;;;;;;;;;;;;;;;5086181;28;19935;-88
2023/01/17 05:22:29;;;;;;;;;;;;;;;;;;5084636;28;19925;-89
2023/01/17 05:24:57;;;;;;;;;;;;;;;;;;5085128;28;19931;-89
2023/01/17 05:27:29;;;;;;;;;;;;;;;;;;5089690;28;19931;-88
2023/01/17 05:30:02;;;;;;;;;;;;;;;;;;5083684;28;19935;-88
2023/01/17 05:32:34;;;;;;;;;;;;;;;;;;5086121;28;19931;-89
2023/01/17 05:35:02;;;;;;;;;;;;;;;;;;5085268;28;20381;-88
2023/01/17 05:37:29;;;;;;;;;;;;;;;;;;5081200;28;19925;-88
2023/01/17 05:39:57;;;;;;;;;;;;;;;;;;5084783;28;19925;-90
2023/01/17 05:42:24;;;;;;;;;;;;;;;;;;5088715;28;19924;-88
2023/01/17 05:44:57;;;;;;;;;;;;;;;;;;5091713;28;19931;-88
2023/01/17 05:47:25;;;;;;;;;;;;;;;;;;5091203;28;19931;-87
2023/01/17 05:49:52;;;;;;;;;;;;;;;;;;5091892;28;19935;-87
2023/01/17 05:52:20;;;;;;;;;;;;;;;;;;5085330;28;20282;-87
2023/01/17 05:54:49;;;;;;;;;;;;;;;;;;5080001;28;19924;-89
2023/01/17 05:57:17;;;;;;;;;;;;;;;;;;5083342;28;19924;-88
2023/01/17 05:59:44;;;;;;;;;;;;;;;;;;5093351;28;19924;-88
2023/01/17 06:02:11;;;;;;;;;;;;;;;;;;5082308;28;19924;-88
2023/01/17 06:04:39;;;;;;;;;;;;;;;;;;5090226;28;19932;-90
2023/01/17 06:07:11;;;;;;;;;;;;;;;;;;5088470;28;19924;-88
2023/01/17 06:09:39;;;;;;;;;;;;;;;;;;5091800;28;19928;-87
2023/01/17 06:12:06;;;;;;;;;;;;;;;;;;5076950;28;19924;-91
2023/01/17 06:14:34;;;;;;;;;;;;;;;;;;5095302;28;20296;-88
2023/01/17 06:17:01;;;;;;;;;;;;;;;;;;5089075;28;19932;-89
2023/01/17 06:19:29;;;;;;;;;;;;;;;;;;5090126;28;19925;-88
2023/01/17 06:21:57;;;;;;;;;;;;;;;;;;5086535;28;19924;-88
2023/01/17 06:24:24;;;;;;;;;;;;;;;;;;5092994;28;19936;-88
2023/01/17 06:26:57;;;;;;;;;;;;;;;;;;5091222;28;19924;-88
2023/01/17 06:29:29;;;;;;;;;;;;;;;;;;5092211;28;20676;-87
2023/01/17 06:31:57;;;;;;;;;;;;;;;;;;5086970;28;19924;-89
2023/01/17 06:34:29;;;;;;;;;;;;;;;;;;5087135;28;19931;-87
2023/01/17 06:37:02;;;;;;;;;;;;;;;;;;5088182;28;19931;-90
2023/01/17 06:39:29;;;;;;;;;;;;;;;;;;5089248;28;19924;-87
2023/01/17 06:42:02;;;;;;;;;;;;;;;;;;5090852;28;19925;-89
2023/01/17 06:44:34;;;;;;;;;;;;;;;;;;5083185;28;19924;-88
2023/01/17 06:47:02;;;;;;;;;;;;;;;;;;5084638;28;19924;-88
2023/01/17 06:49:29;;;;;;;;;;;;;;;;;;5090654;28;20399;-88
2023/01/17 06:52:02;;;;;;;;;;;;;;;;;;5095546;28;19931;-87
2023/01/17 06:54:29;;;;;;;;;;;;;;;;;;5101335;28;19936;-87
2023/01/17 06:57:02;;;;;;;;;;;;;;;;;;5085088;28;19924;-88
2023/01/17 06:59:34;;;;;;;;;;;;;;;;;;5094765;28;19924;-86
2023/01/17 07:02:02;;;;;;;;;;;;;;;;;;5089858;28;19924;-88
2023/01/17 07:04:29;;;;;;;;;;;;;;;;;;5088421;28;19925;-87
2023/01/17 07:07:02;;;;;;;;;;;;;;;;;;5090107;28;19928;-87
2023/01/17 07:09:29;;;;;;;;;;;;;;;;;;5094399;28;19924;-88
2023/01/17 07:12:02;;;;;;;;;;;;;;;;;;5076536;28;20369;-87
2023/01/17 07:14:35;;;;;;;;;;;;;;;;;;5092835;28;19931;-88
2023/01/17 07:17:02;;;;;;;;;;;;;;;;;;5084581;28;19931;-88
2023/01/17 07:19:34;;;;;;;;;;;;;;;;;;5086282;28;19925;-86
2023/01/17 07:22:02;;;;;;;;;;;;;;;;;;5091287;28;20300;-88
2023/01/17 07:24:29;;;;;;;;;;;;;;;;;;5085559;28;19924;-89
2023/01/17 07:26:57;;;;;;;;;;;;;;;;;;5092564;28;19924;-88
2023/01/17 07:29:29;;;;;;;;;;;;;;;;;;5085316;28;19924;-87
2023/01/17 07:32:02;;;;;;;;;;;;;;;;;;5094521;28;19931;-87
2023/01/17 07:34:30;;;;;;;;;;;;;;;;;;5079673;28;19931;-88
2023/01/17 07:37:02;;;;;;;;;;;;;;;;;;5086549;28;19932;-88
2023/01/17 07:39:36;;;;;;;;;;;;;;;;;;5089612;28;19924;-87
2023/01/17 07:42:03;;;;;;;;;;;;;;;;;;5081379;28;19935;-87
2023/01/17 07:44:31;;;;;;;;;;;;;;;;;;5079234;28;19925;-90
2023/01/17 07:46:58;;;;;;;;;;;;;;;;;;5081538;28;19931;-88
2023/01/17 07:49:26;;;;;;;;;;;;;;;;;;5077768;28;19924;-89
2023/01/17 07:51:54;;;;;;;;;;;;;;;;;;5094510;28;19935;-88
2023/01/17 07:54:26;;;;;;;;;;;;;;;;;;5091990;28;19947;-89
2023/01/17 07:56:59;;;;;;;;;;;;;;;;;;5090955;28;19931;-87
2023/01/17 07:59:26;;;;;;;;;;;;;;;;;;5094010;28;19924;-87
2023/01/17 08:01:54;;;;;;;;;;;;;;;;;;5089307;28;19935;-86
2023/01/17 08:04:27;;;;;;;;;;;;;;;;;;5085136;28;19931;-88
2023/01/17 08:07:00;;;;;;;;;;;;;;;;;;5087023;28;19932;-88
2023/01/17 08:09:32;;;;;;;;;;;;;;;;;;5092107;28;19931;-89
2023/01/17 08:12:00;;;;;;;;;;;;;;;;;;5092556;28;19924;-88
2023/01/17 08:14:27;;;;;;;;;;;;;;;;;;5073903;28;20388;-88
2023/01/17 08:16:55;;;;;;;;;;;;;;;;;;5091637;28;19924;-88
2023/01/17 08:19:22;;;;;;;;;;;;;;;;;;5089311;28;20476;-88
2023/01/17 08:21:50;;;;;;;;;;;;;;;;;;5090108;28;19928;-88
2023/01/17 08:24:17;;;;;;;;;;;;;;;;;;5084749;28;19925;-89
2023/01/17 08:26:50;;;;;;;;;;;;;;;;;;5093722;28;19923;-89
2023/01/17 08:29:17;;;;;;;;;;;;;;;;;;5088061;27;20381;-89
2023/01/17 08:31:45;;;;;;;;;;;;;;;;;;5090015;28;19931;-89
2023/01/17 08:34:13;;;;;;;;;;;;;;;;;;5085796;28;19936;-88
2023/01/17 08:36:41;;;;;;;;;;;;;;;;;;5097812;27;20225;-90
2023/01/17 08:39:14;;;;;;;;;;;;;;;;;;5081818;28;19931;-88
2023/01/17 08:41:41;;;;;;;;;;;;;;;;;;5082140;28;19931;-87
2023/01/17 08:44:09;;;;;;;;;;;;;;;;;;5083552;28;19924;-88
2023/01/17 08:46:36;;;;;;;;;;;;;;;;;;5071588;28;19931;-86
2023/01/17 08:49:04;;;;;;;;;;;;;;;;;;5077243;28;19928;-87
2023/01/17 08:51:37;;;;;;;;;;;;;;;;;;5076388;28;19932;-87
2023/01/17 08:54:11;;;;;;;;;;;;;;;;;;5071113;28;19932;-87
2023/01/17 08:56:45;;;;;;;;;;;;;;;;;;5066674;28;19940;-89
2023/01/17 08:59:13;;;;;;;;;;;;;;;;;;5070540;28;19932;-84
2023/01/17 09:01:40;;;;;;;;;;;;;;;;;;5068000;28;19936;-82
2023/01/17 09:04:08;;;;;;;;;;;;;;;;;;5068738;28;19932;-87
2023/01/17 09:06:40;;;;;;;;;;;;;;;;;;5073581;28;19939;-84
2023/01/17 09:09:09;;;;;;;;;;;;;;;;;;5068493;28;19932;-84
2023/01/17 09:11:37;;;;;;;;;;;;;;;;;;5063159;28;19924;-86
2023/01/17 09:14:04;;;;;;;;;;;;;;;;;;5058138;28;20463;-86
2023/01/17 09:16:32;;;;;;;;;;;;;;;;;;5067111;28;19932;-84
2023/01/17 09:19:04;;;;;;;;;;;;;;;;;;5059378;28;19932;-84
2023/01/17 09:21:32;;;;;;;;;;;;;;;;;;5064192;28;19938;-82
2023/01/17 09:24:05;;;;;;;;;;;;;;;;;;5062704;28;19946;-82
2023/01/17 09:26:37;;;;;;;;;;;;;;;;;;5061618;28;19932;-84
2023/01/17 09:29:05;;;;;;;;;;;;;;;;;;5060896;28;19932;-87
2023/01/17 09:31:32;;;;;;;;;;;;;;;;;;5062662;28;19932;-82
2023/01/17 09:34:05;;;;;;;;;;;;;;;;;;5064257;28;19932;-84
2023/01/17 09:36:33;;;;;;;;;;;;;;;;;;5066084;28;19932;-86
2023/01/17 09:39:07;;;;;;;;;;;;;;;;;;5068194;28;20224;-86
2023/01/17 09:41:34;;;;;;;;;;;;;;;;;;5064895;28;19931;-86
2023/01/17 09:44:02;;;;;;;;;;;;;;;;;;5068917;28;20364;-85
2023/01/17 09:46:29;;;;;;;;;;;;;;;;;;5061102;28;20603;-83
2023/01/17 09:48:57;;;;;;;;;;;;;;;;;;5062825;28;20509;-86
2023/01/17 09:51:24;;;;;;;;;;;;;;;;;;5065784;28;19939;-83
2023/01/17 09:53:57;;;;;;;;;;;;;;;;;;5062827;28;20716;-84
2023/01/17 09:56:29;;;;;;;;;;;;;;;;;;5065726;28;19932;-82
2023/01/17 09:59:02;;;;;;;;;;;;;;;;;;5063694;28;19936;-83
2023/01/17 10:01:29;;;;;;;;;;;;;;;;;;5059285;28;19932;-86
2023/01/17 10:03:57;;;;;;;;;;;;;;;;;;5082527;28;20265;-84
2023/01/17 10:06:25;;;;;;;;;;;;;;;;;;5063170;28;19932;-86
2023/01/17 10:08:52;;;;;;;;;;;;;;;;;;5063668;28;19932;-86
2023/01/17 10:11:24;;;;;;;;;;;;;;;;;;5065212;28;19932;-84
2023/01/17 10:13:57;;;;;;;;;;;;;;;;;;5070508;28;20600;-86
2023/01/17 10:16:24;;;;;;;;;;;;;;;;;;5069794;28;21201;-87
2023/01/17 10:18:52;;;;;;;;;;;;;;;;;;5067488;28;19936;-88
2023/01/17 10:21:24;;;;;;;;;;;;;;;;;;5067103;28;19932;-85
2023/01/17 10:23:57;;;;;;;;;;;;;;;;;;5063981;28;19939;-85
2023/01/17 10:26:29;;;;;;;;;;;;;;;;;;5065689;28;19932;-84
2023/01/17 10:28:57;;;;;;;;;;;;;;;;;;5068733;28;19939;-84
2023/01/17 10:31:29;;;;;;;;;;;;;;;;;;5072919;28;20707;-87
2023/01/17 10:33:57;;;;;;;;;;;;;;;;;;5073309;28;19931;-86
2023/01/17 10:36:30;;;;;;;;;;;;;;;;;;5072314;28;19932;-87
2023/01/17 10:38:57;;;;;;;;;;;;;;;;;;5073110;28;19932;-86
2023/01/17 10:41:29;;;;;;;;;;;;;;;;;;5069025;28;19932;-83
2023/01/17 10:43:57;;;;;;;;;;;;;;;;;;5068664;28;19939;-84
2023/01/17 10:46:27;;;;;;;;;;;;;;;;;;5059418;28;19932;-83
2023/01/17 10:48:54;;;;;;;;;;;;;;;;;;5070108;28;19932;-83
2023/01/17 10:51:27;;;;;;;;;;;;;;;;;;5071971;28;19927;-85
2023/01/17 10:53:59;;;;;;;;;;;;;;;;;;5070327;28;19939;-83
2023/01/17 10:56:32;;;;;;;;;;;;;;;;;;5068318;28;19957;-85
2023/01/17 10:58:59;;;;;;;;;;;;;;;;;;5070348;28;20565;-83
2023/01/17 11:01:27;;;;;;;;;;;;;;;;;;5073799;28;19932;-87
2023/01/17 11:03:59;;;;;;;;;;;;;;;;;;5069858;28;19944;-83
2023/01/17 11:06:32;;;;;;;;;;;;;;;;;;5067932;28;20472;-86
2023/01/17 11:09:00;;;;;;;;;;;;;;;;;;5086742;28;19932;-85
2023/01/17 11:11:34;;;;;;;;;;;;;;;;;;5072133;28;19938;-84
2023/01/17 11:14:01;;;;;;;;;;;;;;;;;;5068768;28;19932;-84
2023/01/17 11:16:30;;;;;;;;;;;;;;;;;;5066629;28;19932;-86
2023/01/17 11:19:02;;;;;;;;;;;;;;;;;;5074210;28;19932;-84
2023/01/17 11:21:30;;;;;;;;;;;;;;;;;;5070171;28;19932;-86
2023/01/17 11:24:02;;;;;;;;;;;;;;;;;;5070742;28;19928;-86
2023/01/17 11:26:35;;;;;;;;;;;;;;;;;;5071813;28;19932;-87
2023/01/17 11:29:03;;;;;;;;;;;;;;;;;;5072888;28;21439;-83
2023/01/17 11:31:30;;;;;;;;;;;;;;;;;;5069941;28;19924;-85
2023/01/17 11:33:57;;;;;;;;;;;;;;;;;;5074278;28;19932;-84
2023/01/17 11:36:26;;;;;;;;;;;;;;;;;;5070958;28;19932;-84
2023/01/17 11:38:58;;;;;;;;;;;;;;;;;;5070524;28;19932;-88
2023/01/17 11:41:26;;;;;;;;;;;;;;;;;;5070636;28;21312;-87
2023/01/17 11:43:54;;;;;;;;;;;;;;;;;;5070185;28;19931;-85
2023/01/17 11:46:22;;;;;;;;;;;;;;;;;;5069481;28;19932;-88
2023/01/17 11:48:55;;;;;;;;;;;;;;;;;;5072112;28;19970;-86
2023/01/17 11:51:22;;;;;;;;;;;;;;;;;;5075964;28;19943;-87
2023/01/17 11:53:55;;;;;;;;;;;;;;;;;;5071301;28;20452;-85
2023/01/17 11:56:22;;;;;;;;;;;;;;;;;;5071245;28;19932;-86
2023/01/17 11:58:55;;;;;;;;;;;;;;;;;;5075384;28;19932;-84
2023/01/17 12:01:27;;;;;;;;;;;;;;;;;;5074367;28;19950;-85
2023/01/17 12:04:00;;;;;;;;;;;;;;;;;;5075356;28;19932;-86
2023/01/17 12:06:27;;;;;;;;;;;;;;;;;;5075428;28;19939;-86
2023/01/17 12:08:55;;;;;;;;;;;;;;;;;;5071022;28;19947;-86
2023/01/17 12:11:23;;;;;;;;;;;;;;;;;;5071588;28;19932;-85
2023/01/17 12:14:02;;;;;;;;;;;;;;;;;;5067493;28;19924;-88
2023/01/17 12:16:34;;;;;;;;;;;;;;;;;;5068323;28;19939;-84
2023/01/17 12:19:02;;;;;;;;;;;;;;;;;;5067353;28;19924;-89
2023/01/17 12:21:34;;;;;;;;;;;;;;;;;;5070517;28;19939;-84
2023/01/17 12:24:02;;;;;;;;;;;;;;;;;;5068890;28;19943;-89
2023/01/17 12:26:29;;;;;;;;;;;;;;;;;;5068812;28;19932;-84
2023/01/17 12:28:57;;;;;;;;;;;;;;;;;;5067863;28;19932;-88
2023/01/17 12:31:29;;;;;;;;;;;;;;;;;;5071564;28;19967;-85
2023/01/17 12:34:02;;;;;;;;;;;;;;;;;;5069653;28;19939;-87
2023/01/17 12:36:34;;;;;;;;;;;;;;;;;;5060434;28;19932;-85
2023/01/17 12:39:02;;;;;;;;;;;;;;;;;;5068634;28;19939;-85
2023/01/17 12:41:34;;;;;;;;;;;;;;;;;;5067454;28;20633;-86
2023/01/17 12:44:07;;;;;;;;;;;;;;;;;;5072203;28;19932;-87
2023/01/17 12:46:37;;;;;;;;;;;;;;;;;;5073977;27;21523;-85
2023/01/17 12:49:09;;;;;;;;;;;;;;;;;;5068804;28;19943;-85
2023/01/17 12:51:37;;;;;;;;;;;;;;;;;;5073205;28;20467;-87
2023/01/17 12:54:09;;;;;;;;;;;;;;;;;;5065827;28;19939;-83
2023/01/17 12:56:42;;;;;;;;;;;;;;;;;;5068635;28;19932;-86
2023/01/17 12:59:10;;;;;;;;;;;;;;;;;;5070631;28;19943;-84
2023/01/17 13:01:42;;;;;;;;;;;;;;;;;;5073181;28;19932;-84
2023/01/17 13:04:10;;;;;;;;;;;;;;;;;;5071065;28;20750;-85
2023/01/17 13:06:42;;;;;;;;;;;;;;;;;;5064670;28;20241;-86
2023/01/17 13:09:10;;;;;;;;;;;;;;;;;;5071781;28;19932;-87
2023/01/17 13:11:40;;;;;;;;;;;;;;;;;;5068666;28;19932;-86
2023/01/17 13:14:12;;;;;;;;;;;;;;;;;;5066558;28;19936;-86
2023/01/17 13:16:40;;;;;;;;;;;;;;;;;;5064318;28;19964;-85
2023/01/17 13:19:12;;;;;;;;;;;;;;;;;;5065034;28;19932;-87
2023/01/17 13:21:45;;;;;;;;;;;;;;;;;;5073449;28;19932;-85
2023/01/17 13:24:12;;;;;;;;;;;;;;;;;;5068540;28;20502;-87
2023/01/17 13:26:40;;;;;;;;;;;;;;;;;;5066177;28;20295;-86
2023/01/17 13:29:12;;;;;;;;;;;;;;;;;;5070425;28;19935;-87
2023/01/17 13:31:40;;;;;;;;;;;;;;;;;;5066526;28;19946;-85
2023/01/17 13:34:12;;;;;;;;;;;;;;;;;;5073615;28;19939;-85
2023/01/17 13:36:40;;;;;;;;;;;;;;;;;;5085931;28;20185;-85
2023/01/17 13:39:07;;;;;;;;;;;;;;;;;;5069972;28;19932;-85
2023/01/17 13:41:36;;;;;;;;;;;;;;;;;;5066176;28;20739;-85
2023/01/17 13:44:23;;;;;;;;;;;;;;;;;;5070759;28;20696;-86
2023/01/17 13:46:55;;;;;;;;;;;;;;;;;;5059116;28;19932;-85
2023/01/17 13:49:28;;;;;;;;;;;;;;;;;;5064818;28;19939;-86
2023/01/17 13:51:55;;;;;;;;;;;;;;;;;;5066299;28;19932;-86
2023/01/17 13:54:28;;;;;;;;;;;;;;;;;;5071010;28;19939;-84
2023/01/17 13:56:55;;;;;;;;;;;;;;;;;;5067121;28;20451;-83
2023/01/17 13:59:23;;;;;;;;;;;;;;;;;;5071335;28;19932;-86
2023/01/17 14:01:50;;;;;;;;;;;;;;;;;;5069587;28;19958;-85
2023/01/17 14:04:23;;;;;;;;;;;;;;;;;;5072559;28;19940;-86
2023/01/17 14:06:51;;;;;;;;;;;;;;;;;;5065470;28;20711;-85
2023/01/17 14:09:19;;;;;;;;;;;;;;;;;;5077102;28;19942;-86
2023/01/17 14:11:46;;;;;;;;;;;;;;;;;;5070389;28;21285;-85
2023/01/17 14:14:14;;;;;;;;;;;;;;;;;;5077872;28;19939;-87
2023/01/17 14:16:41;;;;;;;;;;;;;;;;;;5077401;28;19932;-86
2023/01/17 14:19:09;;;;;;;;;;;;;;;;;;5071597;28;19943;-85
2023/01/17 14:21:41;;;;;;;;;;;;;;;;;;5072865;28;19939;-85
2023/01/17 14:24:09;;;;;;;;;;;;;;;;;;5070985;28;19932;-85
2023/01/17 14:26:41;;;;;;;;;;;;;;;;;;5078684;28;19965;-87
2023/01/17 14:29:09;;;;;;;;;;;;;;;;;;5073372;28;20575;-85
2023/01/17 14:31:45;;;;;;;;;;;;;;;;;;5076377;28;21209;-85
2023/01/17 14:34:12;;;;;;;;;;;;;;;;;;5070357;28;19939;-86
2023/01/17 14:36:40;;;;;;;;;;;;;;;;;;5072221;28;19932;-85
2023/01/17 14:39:09;;;;;;;;;;;;;;;;;;5075265;28;19932;-87
2023/01/17 14:41:37;;;;;;;;;;;;;;;;;;5074184;28;19932;-88
2023/01/17 14:44:04;;;;;;;;;;;;;;;;;;5078826;28;19941;-87
2023/01/17 14:46:32;;;;;;;;;;;;;;;;;;5074093;28;19932;-86
2023/01/17 14:48:59;;;;;;;;;;;;;;;;;;5076098;28;19935;-87
2023/01/17 14:51:28;;;;;;;;;;;;;;;;;;5070489;28;20584;-88
2023/01/17 14:53:55;;;;;;;;;;;;;;;;;;5072188;28;19951;-85
2023/01/17 14:56:28;;;;;;;;;;;;;;;;;;5075329;28;19931;-84
2023/01/17 14:59:00;;;;;;;;;;;;;;;;;;5077632;28;19928;-86
2023/01/17 15:01:28;;;;;;;;;;;;;;;;;;5075506;28;19939;-86
2023/01/17 15:03:55;;;;;;;;;;;;;;;;;;5070858;28;20632;-86
2023/01/17 15:06:23;;;;;;;;;;;;;;;;;;5069778;28;19940;-85
2023/01/17 15:08:52;;;;;;;;;;;;;;;;;;5067683;28;19932;-84
2023/01/17 15:11:20;;;;;;;;;;;;;;;;;;5073886;28;20411;-87
2023/01/17 15:13:48;;;;;;;;;;;;;;;;;;5071425;28;20620;-89
2023/01/17 15:16:20;;;;;;;;;;;;;;;;;;5080161;28;19932;-87
2023/01/17 15:18:53;;;;;;;;;;;;;;;;;;5078167;28;20382;-90
2023/01/17 15:21:26;;;;;;;;;;;;;;;;;;5078551;27;20301;-89
2023/01/17 15:23:58;;;;;;;;;;;;;;;;;;5076285;28;19943;-91
2023/01/17 15:26:26;;;;;;;;;;;;;;;;;;5071583;28;19932;-86
2023/01/17 15:28:58;;;;;;;;;;;;;;;;;;5071893;28;20427;-88
2023/01/17 15:31:26;;;;;;;;;;;;;;;;;;5071897;28;19932;-87
2023/01/17 15:34:00;;;;;;;;;;;;;;;;;;5073016;28;19928;-84
2023/01/17 15:36:31;;;;;;;;;;;;;;;;;;5066037;28;19932;-85
2023/01/17 15:38:59;;;;;;;;;;;;;;;;;;5070904;28;19936;-85
2023/01/17 15:41:27;;;;;;;;;;;;;;;;;;5073986;28;19924;-87
2023/01/17 15:43:57;;;;;;;;;;;;;;;;;;5077932;28;19998;-87
2023/01/17 15:46:25;;;;;;;;;;;;;;;;;;5072889;28;19932;-87
2023/01/17 15:48:53;;;;;;;;;;;;;;;;;;5069464;28;20388;-86
2023/01/17 15:51:20;;;;;;;;;;;;;;;;;;5070323;28;19932;-88
2023/01/17 15:53:48;;;;;;;;;;;;;;;;;;5074062;28;20606;-86
2023/01/17 15:56:16;;;;;;;;;;;;;;;;;;5073340;28;19932;-89
2023/01/17 15:58:43;;;;;;;;;;;;;;;;;;5073484;28;19924;-89
2023/01/17 16:01:11;;;;;;;;;;;;;;;;;;5068571;28;19932;-88
2023/01/17 16:03:38;;;;;;;;;;;;;;;;;;5073929;28;19932;-86
2023/01/17 16:06:11;;;;;;;;;;;;;;;;;;5075062;28;19939;-88
2023/01/17 16:08:39;;;;;;;;;;;;;;;;;;5071641;28;21176;-88
2023/01/17 16:11:13;;;;;;;;;;;;;;;;;;5074321;28;19947;-86
2023/01/17 16:13:46;;;;;;;;;;;;;;;;;;5078293;28;19931;-88
2023/01/17 16:16:13;;;;;;;;;;;;;;;;;;5072992;28;19947;-84
2023/01/17 16:18:41;;;;;;;;;;;;;;;;;;5073832;28;21310;-89
2023/01/17 16:21:08;;;;;;;;;;;;;;;;;;5081706;28;19928;-87
2023/01/17 16:23:36;;;;;;;;;;;;;;;;;;5074655;28;20574;-86
2023/01/17 16:26:04;;;;;;;;;;;;;;;;;;5077850;28;19939;-86
2023/01/17 16:28:33;;;;;;;;;;;;;;;;;;5081103;28;19924;-87
2023/01/17 16:31:05;;;;;;;;;;;;;;;;;;5073250;28;19932;-88
2023/01/17 16:33:33;;;;;;;;;;;;;;;;;;5072176;28;19932;-88
2023/01/17 16:36:00;;;;;;;;;;;;;;;;;;5070527;28;20509;-89
2023/01/17 16:38:28;;;;;;;;;;;;;;;;;;5075901;28;20300;-87
2023/01/17 16:40:55;;;;;;;;;;;;;;;;;;5072498;28;19942;-85
2023/01/17 16:43:28;;;;;;;;;;;;;;;;;;5073013;28;19932;-85
2023/01/17 16:45:55;;;;;;;;;;;;;;;;;;5078350;28;20530;-87
2023/01/17 16:48:28;;;;;;;;;;;;;;;;;;5071025;28;19931;-89
2023/01/17 16:50:55;;;;;;;;;;;;;;;;;;5074738;28;20289;-88
2023/01/17 16:53:23;;;;;;;;;;;;;;;;;;5076678;28;19932;-87
2023/01/17 16:55:55;;;;;;;;;;;;;;;;;;5084651;28;19924;-88
2023/01/17 16:58:23;;;;;;;;;;;;;;;;;;5069686;28;19939;-87
2023/01/17 17:00:50;;;;;;;;;;;;;;;;;;5068911;28;19928;-86
2023/01/17 17:03:18;;;;;;;;;;;;;;;;;;5073504;28;19924;-86
2023/01/17 17:05:51;;;;;;;;;;;;;;;;;;5072380;28;20017;-87
2023/01/17 17:08:21;;;;;;;;;;;;;;;;;;5078171;28;20577;-86
2023/01/17 17:10:52;;;;;;;;;;;;;;;;;;5069133;28;19928;-87
2023/01/17 17:13:20;;;;;;;;;;;;;;;;;;5074383;28;19931;-85
2023/01/17 17:15:52;;;;;;;;;;;;;;;;;;5065059;28;19932;-84
2023/01/17 17:18:25;;;;;;;;;;;;;;;;;;5084423;28;19936;-85
2023/01/17 17:20:58;;;;;;;;;;;;;;;;;;5070467;28;19932;-87
2023/01/17 17:23:30;;;;;;;;;;;;;;;;;;5067272;28;19950;-83
2023/01/17 17:26:03;;;;;;;;;;;;;;;;;;5066623;28;19932;-85
2023/01/17 17:28:35;;;;;;;;;;;;;;;;;;5067532;28;19938;-83
2023/01/17 17:31:09;;;;;;;;;;;;;;;;;;5069406;28;19939;-85
2023/01/17 17:33:37;;;;;;;;;;;;;;;;;;5071920;28;19943;-83
2023/01/17 17:36:05;;;;;;;;;;;;;;;;;;5075094;28;19931;-84
2023/01/17 17:38:49;;;;;;;;;;;;;;;;;;5069799;28;19932;-83
2023/01/17 17:41:17;;;;;;;;;;;;;;;;;;5073152;28;20683;-86
2023/01/17 17:43:44;;;;;;;;;;;;;;;;;;5069087;28;20486;-84
2023/01/17 17:46:12;;;;;;;;;;;;;;;;;;5068474;28;19943;-87
2023/01/17 17:48:39;;;;;;;;;;;;;;;;;;5071344;28;19932;-85
2023/01/17 17:51:07;;;;;;;;;;;;;;;;;;5078418;28;19932;-85
2023/01/17 17:53:34;;;;;;;;;;;;;;;;;;5067804;28;19939;-83
2023/01/17 17:56:02;;;;;;;;;;;;;;;;;;5070538;28;19928;-86
2023/01/17 17:58:30;;;;;;;;;;;;;;;;;;5074834;28;19932;-84
2023/01/17 18:00:57;;;;;;;;;;;;;;;;;;5077025;28;20315;-83
2023/01/17 18:03:30;;;;;;;;;;;;;;;;;;5070676;28;19932;-84
2023/01/17 18:05:58;;;;;;;;;;;;;;;;;;5075544;28;19943;-87
2023/01/17 18:08:32;;;;;;;;;;;;;;;;;;5070314;28;19936;-85
2023/01/17 18:10:59;;;;;;;;;;;;;;;;;;5070908;28;19932;-83
2023/01/17 18:13:27;;;;;;;;;;;;;;;;;;5070784;28;19932;-85
2023/01/17 18:15:54;;;;;;;;;;;;;;;;;;5074209;28;19932;-84
2023/01/17 18:18:23;;;;;;;;;;;;;;;;;;5070926;28;19947;-84
2023/01/17 18:20:56;;;;;;;;;;;;;;;;;;5069074;28;19939;-86
2023/01/17 18:23:28;;;;;;;;;;;;;;;;;;5077665;28;19932;-85